Time;durP1;ratioP1;P1;durP2;ratioP2;P2;SDS_P1;SDS_P2;PMS_P1;PMS_P2;Temp;Humidity;BMP_temperature;BMP_pressure;BME280_temperature;BME280_humidity;BME280_pressure;Samples;Min_cycle;Max_cycle;Signal;HPM_P1;HPM_P2
2022/11/24 07:32:06;;;;;;;;;6.00;5.75;;;;;17.86;50.41;100923.59;5103333;27;45866;-74
2022/11/24 07:34:32;;;;;;;;;2.00;0.00;;;;;18.15;50.67;100924.91;5100426;27;45585;-74
2022/11/24 07:36:57;;;;;;;;;3.00;2.50;;;;;18.57;50.45;100922.22;5099754;27;46014;-76
2022/11/24 07:39:22;;;;;;;;;3.00;1.67;;;;;19.12;50.99;100923.00;5101437;27;60376;-77
2022/11/24 07:41:47;;;;;;;;;3.00;3.00;;;;;19.64;51.04;100916.66;5104059;27;53803;-78
2022/11/24 07:44:13;;;;;;;;;4.25;2.25;;;;;20.13;50.38;100929.38;5103510;27;55227;-76
2022/11/24 07:46:38;;;;;;;;;3.33;2.67;;;;;20.58;50.12;100927.94;5094172;27;45461;-75
2022/11/24 07:49:03;;;;;;;;;2.33;2.00;;;;;20.99;49.85;100932.25;5102048;27;46009;-75
2022/11/24 07:51:29;;;;;;;;;1.00;1.00;;;;;21.31;49.71;100933.72;5098260;27;46374;-77
2022/11/24 07:53:54;;;;;;;;;1.33;1.33;;;;;21.63;49.32;100948.63;5118840;27;45775;-76
2022/11/24 07:56:19;;;;;;;;;4.67;1.33;;;;;21.90;49.19;100962.28;5100310;27;45524;-79
2022/11/24 07:58:45;;;;;;;;;3.33;2.00;;;;;22.15;49.09;100968.78;5099188;27;47221;-76
2022/11/24 08:01:15;;;;;;;;;2.67;1.33;;;;;22.38;48.84;100968.31;5099697;27;47957;-77
2022/11/24 08:03:42;;;;;;;;;2.33;0.33;;;;;22.56;48.23;100973.75;5103071;27;45681;-73
2022/11/24 08:06:08;;;;;;;;;2.67;2.00;;;;;22.73;48.48;100973.88;5109375;27;45430;-75
2022/11/24 08:08:33;;;;;;;;;4.67;3.33;;;;;22.89;48.09;100974.00;5109430;27;45382;-76
2022/11/24 08:11:10;;;;;;;;;2.67;2.00;;;;;23.06;48.03;100973.25;5111305;27;45912;-75
2022/11/24 08:13:36;;;;;;;;;1.00;1.00;;;;;23.20;47.67;100982.63;5107659;27;45319;-76
2022/11/24 08:16:12;;;;;;;;;3.00;2.00;;;;;23.33;47.63;100987.66;5107306;27;45533;-75
2022/11/24 08:18:38;;;;;;;;;1.00;1.00;;;;;23.46;47.71;100987.22;5109016;27;45580;-75
2022/11/24 08:21:05;;;;;;;;;3.00;2.00;;;;;23.54;47.37;100988.09;5111464;27;45946;-75
2022/11/24 08:23:31;;;;;;;;;3.00;1.33;;;;;23.63;47.37;100988.97;5109955;27;45807;-76
2022/11/24 08:26:03;;;;;;;;;1.33;1.33;;;;;23.73;47.10;100991.53;5106095;27;45320;-78
2022/11/24 08:28:28;;;;;;;;;1.00;1.00;;;;;23.80;47.19;100998.00;5111407;27;45495;-75
2022/11/24 08:31:02;;;;;;;;;1.00;1.00;;;;;23.88;47.15;100996.34;5110514;27;45424;-75
2022/11/24 08:33:28;;;;;;;;;3.00;2.00;;;;;23.92;46.82;100993.13;5108976;27;45465;-75
2022/11/24 08:35:53;;;;;;;;;2.67;1.00;;;;;23.99;46.62;100997.91;5110747;27;45559;-78
2022/11/24 08:38:18;;;;;;;;;5.33;3.00;;;;;24.05;46.54;101005.34;5108096;27;54908;-82
2022/11/24 08:40:43;;;;;;;;;2.00;2.00;;;;;24.10;46.52;101004.91;5109440;27;56322;-83
2022/11/24 08:43:09;;;;;;;;;2.00;2.00;;;;;24.11;46.30;101009.31;5087771;27;60541;-83
2022/11/24 08:45:34;;;;;;;;;1.33;1.33;;;;;24.14;46.25;101008.97;5097167;27;51300;-82
2022/11/24 08:47:59;;;;;;;;;4.00;2.33;;;;;24.13;46.02;101010.84;5097891;27;45391;-82
2022/11/24 08:50:24;;;;;;;;;2.67;1.00;;;;;24.15;46.13;101016.94;5097362;27;45680;-77
2022/11/24 08:52:52;;;;;;;;;4.33;2.33;;;;;24.18;45.66;101016.63;5097607;27;45534;-78
2022/11/24 08:55:17;;;;;;;;;2.67;2.00;;;;;24.19;45.72;101012.03;5097141;27;45707;-79
2022/11/24 08:57:43;;;;;;;;;2.33;1.33;;;;;24.22;45.66;101019.84;5095089;27;45484;-76
2022/11/24 09:00:09;;;;;;;;;1.00;1.00;;;;;24.24;45.60;101012.41;5094932;27;46191;-74
2022/11/24 09:02:34;;;;;;;;;2.00;2.00;;;;;24.30;45.48;101016.28;5092795;27;45700;-77
2022/11/24 09:04:59;;;;;;;;;2.33;1.00;;;;;24.31;45.54;101012.53;5083666;27;45526;-79
2022/11/24 09:07:25;;;;;;;;;3.33;2.00;;;;;24.35;45.59;101019.34;5095216;27;45287;-76
2022/11/24 09:09:51;;;;;;;;;1.00;1.00;;;;;24.41;45.08;101020.53;5094998;27;45700;-85
2022/11/24 09:12:16;;;;;;;;;1.33;1.00;;;;;24.46;45.33;101019.03;5091285;27;45439;-77
2022/11/24 09:14:41;;;;;;;;;4.33;2.00;;;;;24.53;45.24;101029.19;5081436;27;45560;-77
2022/11/24 09:17:06;;;;;;;;;3.00;3.00;;;;;24.56;45.28;101032.41;5085794;27;45445;-78
2022/11/24 09:19:32;;;;;;;;;1.00;1.00;;;;;24.63;45.07;101029.88;5096536;27;47114;-82
2022/11/24 09:21:57;;;;;;;;;0.33;0.33;;;;;24.69;45.05;101028.38;5096265;27;45324;-78
2022/11/24 09:24:23;;;;;;;;;1.33;1.33;;;;;24.73;44.75;101035.16;5092875;27;45706;-77
2022/11/24 09:26:48;;;;;;;;;2.00;2.00;;;;;24.76;44.99;101033.97;5096531;27;45347;-75
2022/11/24 09:29:13;;;;;;;;;2.33;1.33;;;;;24.74;44.94;101026.81;5092811;27;45378;-76
2022/11/24 09:31:39;;;;;;;;;2.00;1.00;;;;;24.74;44.71;101026.81;5091086;27;45431;-77
2022/11/24 09:34:07;;;;;;;;;2.00;1.00;;;;;24.74;44.88;101036.84;5087380;27;45528;-77
2022/11/24 09:36:34;;;;;;;;;1.67;1.67;;;;;24.74;44.98;101032.25;5094085;27;45446;-76
2022/11/24 09:38:59;;;;;;;;;4.00;2.00;;;;;24.77;44.62;101036.50;5094818;27;45415;-76
2022/11/24 09:41:54;;;;;;;;;4.33;2.00;;;;;24.78;44.26;101024.63;5084168;27;45479;-77
2022/11/24 09:44:47;;;;;;;;;1.00;1.00;;;;;24.78;44.45;101029.19;5091948;27;45483;-76
2022/11/24 09:47:36;;;;;;;;;3.00;1.33;;;;;24.78;44.70;101026.50;5094723;27;45452;-76
2022/11/24 09:50:07;;;;;;;;;1.00;1.00;;;;;24.79;44.13;101023.59;5098144;27;48584;-77
2022/11/24 09:53:04;;;;;;;;;2.00;2.00;;;;;24.79;44.11;101017.31;5080025;27;45488;-77
2022/11/24 09:55:37;;;;;;;;;4.00;1.00;;;;;24.80;44.37;101027.19;5095131;27;45411;-77
2022/11/24 09:58:31;;;;;;;;;1.67;1.67;;;;;24.74;44.00;101026.81;5095009;27;45493;-77
2022/11/24 10:00:57;;;;;;;;;2.33;2.33;;;;;24.79;44.59;101053.47;5084404;27;46310;-76
2022/11/24 10:03:31;;;;;;;;;3.00;1.00;;;;;24.78;44.26;101054.50;5094535;27;45554;-75
2022/11/24 10:06:00;;;;;;;;;1.33;1.00;;;;;24.77;44.26;101050.06;5094182;27;46270;-74
2022/11/24 10:08:37;;;;;;;;;1.33;1.33;;;;;24.79;44.09;101052.59;5094931;27;45324;-74
2022/11/24 10:11:11;;;;;;;;;0.33;0.33;;;;;24.79;44.03;101052.59;5086438;27;45991;-74
2022/11/24 10:13:45;;;;;;;;;2.33;1.33;;;;;24.79;44.12;101063.47;5094192;27;45270;-74
2022/11/24 10:16:39;;;;;;;;;1.67;1.00;;;;;24.82;44.14;101065.84;5092450;27;45539;-74
2022/11/24 10:19:13;;;;;;;;;2.33;0.67;;;;;24.85;44.60;101060.13;5082943;27;45406;-74
2022/11/24 10:21:57;;;;;;;;;1.33;1.33;;;;;24.89;44.13;101055.19;5093418;27;47232;-74
2022/11/24 10:24:43;;;;;;;;;1.00;1.00;;;;;24.94;44.24;101048.25;5096509;27;45442;-71
2022/11/24 10:27:17;;;;;;;;;1.67;1.00;;;;;25.00;44.19;101046.69;5092679;27;47181;-75
2022/11/24 10:29:44;;;;;;;;;1.00;1.00;;;;;25.06;44.04;101042.44;5089903;27;45771;-76
2022/11/24 10:32:24;;;;;;;;;2.00;2.00;;;;;25.12;44.12;101039.03;5095371;27;46294;-75
2022/11/24 10:34:50;;;;;;;;;2.00;2.00;;;;;25.19;44.06;101039.19;5091887;27;45479;-75
2022/11/24 10:37:34;;;;;;;;;1.33;1.33;;;;;25.24;43.90;101026.81;5085910;27;45440;-75
2022/11/24 10:40:16;;;;;;;;;1.00;0.00;;;;;25.29;43.88;101023.56;5089122;27;45447;-73
2022/11/24 10:42:42;;;;;;;;;1.67;1.00;;;;;25.32;43.71;101017.78;5090717;27;45694;-77
2022/11/24 10:45:10;;;;;;;;;3.00;3.00;;;;;25.33;43.63;101002.31;5088775;27;45712;-75
2022/11/24 10:47:36;;;;;;;;;1.00;1.00;;;;;25.26;43.37;100997.59;5080424;27;45880;-75
2022/11/24 10:50:11;;;;;;;;;1.00;1.00;;;;;25.19;43.20;100998.47;5080656;27;45526;-75
2022/11/24 10:52:41;;;;;;;;;4.67;3.00;;;;;25.10;43.05;100990.31;5094927;27;45520;-78
2022/11/24 10:55:07;;;;;;;;;0.33;0.33;;;;;25.07;43.35;100990.69;5091929;27;45480;-76
2022/11/24 10:57:35;;;;;;;;;2.00;2.00;;;;;25.03;43.05;100986.63;5093668;27;45518;-74
2022/11/24 11:00:23;;;;;;;;;2.33;2.00;;;;;24.96;42.88;100972.03;5084304;27;46964;-74
2022/11/24 11:02:50;;;;;;;;;4.00;3.00;;;;;24.88;42.82;100974.78;5090957;27;46369;-74
2022/11/24 11:05:30;;;;;;;;;4.00;4.00;;;;;24.81;42.82;100977.31;5086007;27;45763;-74
2022/11/24 11:08:23;;;;;;;;;4.00;3.00;;;;;24.72;42.61;100973.72;5085400;27;45774;-74
2022/11/24 11:11:06;;;;;;;;;2.00;2.00;;;;;24.66;42.77;100963.56;5076511;27;45318;-74
2022/11/24 11:13:31;;;;;;;;;2.00;2.00;;;;;24.58;42.73;100959.00;5080651;27;45960;-74
2022/11/24 11:15:58;;;;;;;;;2.00;1.00;;;;;24.56;42.70;100959.16;5092223;27;45410;-77
2022/11/24 11:18:32;;;;;;;;;3.00;2.00;;;;;24.54;42.59;100961.22;5095223;27;45452;-75
2022/11/24 11:21:03;;;;;;;;;1.00;1.00;;;;;24.53;42.49;100962.22;5072961;27;45478;-75
2022/11/24 11:23:33;;;;;;;;;3.67;3.67;;;;;24.51;42.47;100957.97;5076131;27;46170;-75
2022/11/24 11:26:21;;;;;;;;;2.00;2.00;;;;;24.46;42.45;100964.78;5091945;27;45450;-75
2022/11/24 11:29:12;;;;;;;;;2.33;2.33;;;;;24.44;42.35;100955.09;5085147;27;45539;-76
2022/11/24 11:31:38;;;;;;;;;1.67;1.67;;;;;24.46;42.35;100942.22;5091979;27;45414;-75
2022/11/24 11:34:09;;;;;;;;;3.00;3.00;;;;;24.48;42.48;100949.16;5094230;27;46318;-73
2022/11/24 11:36:40;;;;;;;;;2.00;2.00;;;;;24.54;42.64;100944.94;5094234;27;45382;-74
2022/11/24 11:39:05;;;;;;;;;3.00;3.00;;;;;24.59;42.37;100936.25;5087750;27;45417;-73
2022/11/24 11:41:39;;;;;;;;;4.00;3.67;;;;;24.61;42.46;100932.34;5092551;27;47576;-74
2022/11/24 11:44:22;;;;;;;;;2.67;1.67;;;;;24.68;42.62;100934.41;5094841;27;45501;-73
2022/11/24 11:46:48;;;;;;;;;3.00;2.00;;;;;24.75;42.81;100927.25;5093338;27;45455;-73
2022/11/24 11:49:13;;;;;;;;;4.00;2.33;;;;;24.79;42.61;100927.75;5081250;27;45309;-74
2022/11/24 11:51:47;;;;;;;;;2.33;2.33;;;;;24.87;42.40;100927.78;5081952;27;45453;-73
2022/11/24 11:54:55;;;;;;;;;2.00;2.00;;;;;24.90;42.32;100921.16;5083125;27;47124;-73
2022/11/24 11:57:41;;;;;;;;;2.67;2.67;;;;;24.96;42.37;100929.44;5089989;27;45607;-72
2022/11/24 12:00:14;;;;;;;;;3.33;2.00;;;;;25.01;42.28;100920.75;5089572;27;45637;-72
2022/11/24 12:02:58;;;;;;;;;2.67;2.00;;;;;25.04;42.28;100922.28;5090280;27;45475;-74
2022/11/24 12:05:36;;;;;;;;;1.00;1.00;;;;;25.03;42.48;100923.31;5087329;27;45499;-72
2022/11/24 12:08:01;;;;;;;;;4.00;2.00;;;;;25.04;42.15;100927.72;5087455;27;47224;-72
2022/11/24 12:10:44;;;;;;;;;3.00;1.67;;;;;25.06;42.52;100929.22;5092855;27;45783;-72
2022/11/24 12:13:31;;;;;;;;;5.67;3.33;;;;;25.11;42.45;100921.44;5089723;27;45447;-72
2022/11/24 12:16:05;;;;;;;;;3.00;2.00;;;;;25.16;42.01;100914.59;5092662;27;46112;-76
2022/11/24 12:19:05;;;;;;;;;5.00;2.67;;;;;25.20;42.23;100908.66;5093582;27;45547;-75
2022/11/24 12:21:50;;;;;;;;;3.33;3.00;;;;;25.25;42.18;100897.25;5089337;27;45389;-78
2022/11/24 12:24:34;;;;;;;;;5.00;2.33;;;;;25.33;42.31;100899.09;5097483;27;45642;-77
2022/11/24 12:27:41;;;;;;;;;3.67;2.67;;;;;25.43;42.25;100885.28;5083051;27;47385;-78
2022/11/24 12:30:19;;;;;;;;;3.33;3.00;;;;;25.51;42.24;100877.94;5082257;27;45616;-75
2022/11/24 12:33:20;;;;;;;;;4.00;3.67;;;;;25.57;42.08;100881.00;5093054;27;45574;-72
2022/11/24 12:35:50;;;;;;;;;6.00;3.00;;;;;25.58;41.90;100872.66;5087517;27;45377;-74
2022/11/24 12:39:07;;;;;;;;;4.00;4.00;;;;;25.60;41.91;100881.50;5091066;27;46140;-74
2022/11/24 12:41:35;;;;;;;;;3.00;2.00;;;;;25.62;41.74;100867.72;5077764;27;45710;-74
2022/11/24 12:44:02;;;;;;;;;5.67;3.00;;;;;25.65;42.32;100860.06;5095871;27;45418;-74
2022/11/24 12:46:46;;;;;;;;;3.67;3.00;;;;;25.71;41.54;100861.19;5096315;27;45352;-74
2022/11/24 12:49:17;;;;;;;;;4.67;2.67;;;;;25.73;41.75;100861.88;5089580;27;45529;-75
2022/11/24 12:51:47;;;;;;;;;4.00;3.67;;;;;25.71;41.59;100858.47;5092183;27;45461;-75
2022/11/24 12:54:17;;;;;;;;;3.00;2.00;;;;;25.72;41.69;100873.78;5090720;27;45442;-76
2022/11/24 12:57:03;;;;;;;;;2.00;2.00;;;;;25.71;41.46;100865.81;5096643;27;45567;-74
2022/11/24 13:00:07;;;;;;;;;3.00;3.00;;;;;25.68;41.44;100861.56;5090537;27;45560;-73
2022/11/24 13:02:59;;;;;;;;;3.67;1.00;;;;;25.68;41.74;100863.44;5082629;27;45637;-74
2022/11/24 13:05:28;;;;;;;;;2.00;2.00;;;;;25.69;41.37;100859.69;5053460;28;45535;-74
2022/11/24 13:07:57;;;;;;;;;2.00;2.00;;;;;25.75;42.12;100850.81;5048291;28;45466;-74
2022/11/24 13:10:22;;;;;;;;;3.33;3.33;;;;;25.82;41.35;100843.63;5053387;28;45405;-74
2022/11/24 13:12:53;;;;;;;;;2.67;1.33;;;;;25.93;41.82;100836.91;5050659;28;45359;-75
2022/11/24 13:15:18;;;;;;;;;2.67;2.67;;;;;26.02;41.97;100835.81;5035406;28;45472;-75
2022/11/24 13:17:44;;;;;;;;;4.67;2.67;;;;;26.15;41.51;100847.94;5053701;28;46819;-74
2022/11/24 13:20:19;;;;;;;;;2.00;1.00;;;;;26.24;41.69;100841.38;5043700;28;49707;-75
2022/11/24 13:22:55;;;;;;;;;4.67;2.00;;;;;26.35;41.50;100834.69;5053677;28;45489;-75
2022/11/24 13:25:27;;;;;;;;;3.00;3.00;;;;;26.44;41.25;100835.44;5045555;28;45377;-75
2022/11/24 13:27:56;;;;;;;;;2.00;2.00;;;;;26.50;41.60;100836.59;5049300;28;45472;-75
2022/11/24 13:30:33;;;;;;;;;5.00;2.00;;;;;26.55;41.19;100835.00;5044795;28;46542;-75
2022/11/24 13:33:10;;;;;;;;;4.00;3.00;;;;;26.58;41.57;100837.34;5043025;28;45481;-74
2022/11/24 13:35:40;;;;;;;;;2.00;2.00;;;;;26.57;41.19;100832.94;5051363;28;45623;-75
2022/11/24 13:38:43;;;;;;;;;2.00;2.00;;;;;26.60;41.69;100831.72;5052633;28;45392;-75
2022/11/24 13:41:30;;;;;;;;;3.00;1.67;;;;;26.60;40.94;100834.44;4988313;28;46423;-75
2022/11/24 13:44:13;;;;;;;;;4.00;2.00;;;;;26.62;41.19;100829.66;5026915;28;45377;-75
2022/11/24 13:47:02;;;;;;;;;2.00;2.00;;;;;26.64;41.11;100837.66;5025123;28;45451;-75
2022/11/24 13:49:41;;;;;;;;;1.00;1.00;;;;;26.66;41.62;100832.84;5026539;28;45779;-74
2022/11/24 13:52:37;;;;;;;;;2.00;2.00;;;;;26.70;41.61;100842.31;5015741;28;45970;-75
2022/11/24 13:55:20;;;;;;;;;1.00;1.00;;;;;26.75;41.72;100839.03;5023486;28;45519;-74
2022/11/24 13:57:52;;;;;;;;;1.67;1.67;;;;;26.77;41.18;100836.97;5032952;28;45476;-75
2022/11/24 14:01:11;;;;;;;;;3.00;3.00;;;;;26.78;40.99;100844.97;5031508;28;45806;-75
2022/11/24 14:03:48;;;;;;;;;3.00;2.00;;;;;26.79;41.10;100852.09;5025893;28;46455;-74
2022/11/24 14:06:20;;;;;;;;;2.00;1.33;;;;;26.79;41.20;100849.38;5028395;28;45814;-76
2022/11/24 14:08:47;;;;;;;;;2.33;2.33;;;;;26.74;41.27;100840.94;5032877;28;45668;-76
2022/11/24 14:11:15;;;;;;;;;1.00;0.00;;;;;26.74;40.73;100843.66;5031158;28;45928;-75
2022/11/24 14:13:41;;;;;;;;;3.00;1.33;;;;;26.72;41.06;100840.25;5027041;28;45562;-74
2022/11/24 14:16:16;;;;;;;;;3.67;1.67;;;;;26.69;40.89;100827.84;5043902;27;45979;-74
2022/11/24 14:18:44;;;;;;;;;2.33;2.33;;;;;26.72;41.41;100829.34;5095486;27;46420;-78
2022/11/24 14:21:31;;;;;;;;;0.00;0.00;;;;;26.72;41.21;100823.09;5094870;27;45329;-74
2022/11/24 14:24:08;;;;;;;;;2.00;2.00;;;;;26.73;41.28;100825.59;5094547;27;46108;-77
2022/11/24 14:26:36;;;;;;;;;1.00;1.00;;;;;26.72;40.81;100820.38;5092766;27;45485;-74
2022/11/24 14:29:05;;;;;;;;;1.00;1.00;;;;;26.70;40.86;100823.28;5087098;27;45817;-79
2022/11/24 14:31:30;;;;;;;;;2.00;0.33;;;;;26.67;40.66;100824.50;5088981;27;45662;-81
2022/11/24 14:34:11;;;;;;;;;2.00;2.00;;;;;26.65;40.89;100821.09;5097714;27;45932;-81
2022/11/24 14:36:37;;;;;;;;;0.00;0.00;;;;;26.58;40.87;100804.66;5094675;27;45382;-78
2022/11/24 14:39:03;;;;;;;;;1.00;1.00;;;;;26.65;41.39;100810.22;5093211;27;45525;-77
2022/11/24 14:41:29;;;;;;;;;2.33;2.00;;;;;26.66;41.54;100809.19;5094730;27;45662;-78
2022/11/24 14:44:21;;;;;;;;;2.67;1.00;;;;;26.74;40.99;100799.22;5094309;27;46071;-76
2022/11/24 14:46:46;;;;;;;;;2.67;1.33;;;;;26.78;40.98;100804.13;5095315;27;45604;-72
2022/11/24 14:49:21;;;;;;;;;1.67;1.00;;;;;26.82;41.60;100790.97;5092528;27;45743;-73
2022/11/24 14:51:54;;;;;;;;;2.00;2.00;;;;;26.86;41.47;100797.72;5093980;27;45608;-72
2022/11/24 14:54:21;;;;;;;;;1.67;1.67;;;;;26.87;41.23;100793.97;5093991;27;47049;-74
2022/11/24 14:57:03;;;;;;;;;2.67;1.67;;;;;26.87;40.71;100801.28;5092539;27;45416;-73
2022/11/24 14:59:38;;;;;;;;;2.33;1.33;;;;;26.77;40.98;100804.31;5092442;27;45556;-73
2022/11/24 15:02:40;;;;;;;;;3.00;3.00;;;;;26.57;40.58;100797.53;5094098;27;45601;-72
2022/11/24 15:05:05;;;;;;;;;5.00;2.00;;;;;26.42;40.17;100794.84;5085785;27;47144;-72
2022/11/24 15:07:31;;;;;;;;;2.00;2.00;;;;;26.36;40.62;100797.47;5091493;27;45508;-71
2022/11/24 15:10:02;;;;;;;;;3.00;2.00;;;;;26.28;40.21;100801.94;5086872;27;45636;-73
2022/11/24 15:12:33;;;;;;;;;5.00;3.00;;;;;26.25;40.16;100805.06;5093373;27;45525;-73
2022/11/24 15:15:14;;;;;;;;;7.33;2.67;;;;;26.25;40.75;100804.19;5089144;27;47212;-73
2022/11/24 15:17:56;;;;;;;;;4.33;3.33;;;;;26.23;40.92;100796.19;5089924;27;47107;-72
2022/11/24 15:20:29;;;;;;;;;1.00;1.00;;;;;26.27;40.15;100804.84;5093511;27;45473;-72
2022/11/24 15:23:18;;;;;;;;;2.00;2.00;;;;;26.28;40.72;100806.56;5089104;27;45416;-71
2022/11/24 15:25:43;;;;;;;;;4.33;3.00;;;;;26.30;40.41;100815.38;5082335;27;46535;-71
2022/11/24 15:28:09;;;;;;;;;2.00;1.00;;;;;26.34;40.53;100797.63;5091339;27;45692;-72
2022/11/24 15:30:35;;;;;;;;;0.67;0.67;;;;;26.28;40.47;100788.34;5093795;27;45449;-72
2022/11/24 15:33:01;;;;;;;;;2.00;2.00;;;;;26.17;39.86;100777.88;5092850;27;45401;-72
2022/11/24 15:35:31;;;;;;;;;2.00;2.00;;;;;26.01;40.21;100785.19;5093695;27;45603;-72
2022/11/24 15:37:56;;;;;;;;;2.33;0.67;;;;;25.86;39.54;100782.41;5094154;27;45519;-72
2022/11/24 15:40:21;;;;;;;;;1.00;1.00;;;;;25.74;39.92;100773.84;5089833;27;45389;-72
2022/11/24 15:42:52;;;;;;;;;1.67;1.33;;;;;25.63;39.91;100775.13;5089221;27;45625;-73
2022/11/24 15:45:20;;;;;;;;;4.00;1.00;;;;;25.57;39.82;100775.00;5090306;27;47243;-73
2022/11/24 15:47:45;;;;;;;;;4.67;3.00;;;;;25.52;40.00;100770.09;5089518;27;45418;-73
2022/11/24 15:50:11;;;;;;;;;4.33;4.00;;;;;25.45;39.68;100752.81;5091788;27;45373;-73
2022/11/24 15:52:37;;;;;;;;;3.33;3.00;;;;;25.49;40.47;100765.00;5094843;27;45515;-73
2022/11/24 15:55:04;;;;;;;;;4.33;2.00;;;;;25.52;40.25;100751.06;5092033;27;47107;-73
2022/11/24 15:57:32;;;;;;;;;1.00;1.00;;;;;25.58;40.15;100749.53;5087492;27;45396;-73
2022/11/24 15:59:57;;;;;;;;;5.00;1.33;;;;;25.64;40.29;100746.09;5086818;27;45608;-73
2022/11/24 16:02:22;;;;;;;;;4.00;1.00;;;;;25.72;40.08;100742.44;5091736;27;47174;-73
2022/11/24 16:04:48;;;;;;;;;5.67;4.33;;;;;25.77;40.28;100732.72;5095297;27;45519;-72
2022/11/24 16:07:14;;;;;;;;;4.00;2.33;;;;;25.83;40.21;100731.13;5090433;27;45780;-71
2022/11/24 16:09:39;;;;;;;;;4.67;2.67;;;;;25.90;40.53;100728.50;5086404;27;45527;-72
2022/11/24 16:12:07;;;;;;;;;2.33;2.33;;;;;25.95;40.11;100725.25;5094438;27;45490;-73
2022/11/24 16:14:35;;;;;;;;;2.67;2.67;;;;;26.00;40.08;100734.53;5088544;27;45665;-73
2022/11/24 16:17:01;;;;;;;;;1.67;1.67;;;;;26.07;40.47;100739.25;5092016;27;45487;-73
2022/11/24 16:19:26;;;;;;;;;2.00;1.00;;;;;26.09;40.02;100738.03;5091722;27;45707;-73
2022/11/24 16:21:52;;;;;;;;;2.67;2.67;;;;;26.20;40.02;100742.16;5084427;27;46715;-73
2022/11/24 16:24:17;;;;;;;;;4.00;1.00;;;;;26.26;40.01;100743.31;5090455;27;45548;-72
2022/11/24 16:26:43;;;;;;;;;2.00;2.00;;;;;26.28;40.25;100750.25;5107902;27;45516;-71
2022/11/24 16:29:08;;;;;;;;;4.00;2.67;;;;;26.29;40.14;100749.22;5089658;27;45834;-72
2022/11/24 16:31:34;;;;;;;;;3.00;1.67;;;;;26.30;40.25;100756.38;5084279;27;49810;-72
2022/11/24 16:33:59;;;;;;;;;3.67;1.00;;;;;26.34;39.96;100750.53;5091999;27;46259;-71
2022/11/24 16:36:24;;;;;;;;;1.33;1.33;;;;;26.35;40.03;100750.34;5088618;27;45529;-74
2022/11/24 16:38:50;;;;;;;;;2.67;1.00;;;;;26.39;39.96;100756.25;5093394;27;45452;-74
2022/11/24 16:41:15;;;;;;;;;1.00;1.00;;;;;26.41;40.40;100763.19;5086010;27;51750;-74
2022/11/24 16:43:41;;;;;;;;;2.00;2.00;;;;;26.42;40.27;100759.47;5091143;27;60202;-75
2022/11/24 16:46:23;;;;;;;;;3.67;1.67;;;;;26.42;39.92;100764.06;5093709;27;45444;-73
2022/11/24 16:48:51;;;;;;;;;1.00;1.00;;;;;26.39;39.91;100754.38;5087632;27;45481;-71
2022/11/24 16:51:19;;;;;;;;;1.33;1.33;;;;;26.40;40.15;100766.94;5082055;27;45598;-74
2022/11/24 16:53:44;;;;;;;;;4.00;2.67;;;;;26.42;40.28;100764.06;5077606;27;46394;-74
2022/11/24 16:56:10;;;;;;;;;2.00;2.00;;;;;26.41;40.44;100770.53;5075583;27;45430;-75
2022/11/24 16:58:38;;;;;;;;;1.00;1.00;;;;;26.38;40.00;100760.88;5089499;27;45961;-76
2022/11/24 17:01:05;;;;;;;;;6.00;3.33;;;;;26.39;40.41;100762.56;5081972;27;45722;-73
2022/11/24 17:03:32;;;;;;;;;3.00;2.33;;;;;26.38;40.01;100760.00;5080435;27;46186;-72
2022/11/24 17:05:59;;;;;;;;;5.00;1.67;;;;;26.33;40.10;100759.72;5079355;27;45687;-71
2022/11/24 17:08:25;;;;;;;;;4.00;4.00;;;;;26.26;39.86;100759.63;5079431;27;45415;-72
2022/11/24 17:10:50;;;;;;;;;4.33;2.33;;;;;26.16;39.73;100749.00;5082348;27;45420;-72
2022/11/24 17:13:16;;;;;;;;;1.00;1.00;;;;;26.05;39.98;100750.31;5077682;27;45510;-71
2022/11/24 17:15:41;;;;;;;;;4.00;1.67;;;;;25.96;39.75;100749.53;5078087;27;45763;-72
2022/11/24 17:18:07;;;;;;;;;3.00;1.00;;;;;25.90;40.00;100744.81;5080493;27;45537;-72
2022/11/24 17:20:34;;;;;;;;;3.00;1.33;;;;;25.82;39.48;100743.03;5081931;27;45845;-72
2022/11/24 17:23:00;;;;;;;;;1.00;1.00;;;;;25.77;39.86;100753.63;5076546;27;47183;-72
2022/11/24 17:25:25;;;;;;;;;2.33;2.00;;;;;25.72;39.46;100743.31;5077175;27;45529;-72
2022/11/24 17:27:51;;;;;;;;;3.00;2.33;;;;;25.70;39.68;100748.06;5074561;27;52031;-72
2022/11/24 17:30:17;;;;;;;;;1.33;1.00;;;;;25.68;39.80;100743.84;5082244;27;45443;-72
2022/11/24 17:32:42;;;;;;;;;5.33;2.33;;;;;25.65;39.45;100745.91;5078676;27;45417;-71
2022/11/24 17:35:07;;;;;;;;;3.67;1.67;;;;;25.63;39.42;100747.13;5078420;27;59444;-72
2022/11/24 17:37:35;;;;;;;;;2.00;1.67;;;;;25.62;39.87;100746.25;5089267;27;45733;-72
2022/11/24 17:40:01;;;;;;;;;3.00;3.00;;;;;25.61;39.62;100747.28;5076066;27;45522;-74
2022/11/24 17:42:26;;;;;;;;;3.00;1.33;;;;;25.59;39.28;100746.63;5089504;27;47053;-72
2022/11/24 17:44:52;;;;;;;;;4.00;2.00;;;;;25.55;39.79;100745.31;5079050;27;45581;-73
2022/11/24 17:47:17;;;;;;;;;2.33;1.00;;;;;25.51;39.49;100749.38;5077055;27;45390;-72
2022/11/24 17:49:42;;;;;;;;;3.00;3.00;;;;;25.46;39.54;100741.78;5076940;27;45376;-72
2022/11/24 17:52:08;;;;;;;;;1.33;1.33;;;;;25.43;39.33;100750.31;5088509;27;48747;-74
2022/11/24 17:54:33;;;;;;;;;3.00;3.00;;;;;25.39;39.66;100736.22;5077168;27;45469;-73
2022/11/24 17:56:58;;;;;;;;;1.00;1.00;;;;;25.39;39.69;100747.09;5080459;27;45449;-73
2022/11/24 17:59:23;;;;;;;;;3.00;1.67;;;;;25.36;39.36;100731.16;5077606;27;53566;-74
2022/11/24 18:01:49;;;;;;;;;5.33;2.33;;;;;25.36;39.37;100741.16;5073527;27;54295;-73
2022/11/24 18:04:14;;;;;;;;;2.33;2.33;;;;;25.36;39.63;100738.44;5081807;27;46532;-73
2022/11/24 18:06:39;;;;;;;;;3.67;2.00;;;;;25.37;39.86;100740.13;5076240;27;45571;-73
2022/11/24 18:09:05;;;;;;;;;2.33;2.33;;;;;25.36;39.35;100747.47;5080322;27;45555;-73
2022/11/24 18:11:30;;;;;;;;;2.00;2.00;;;;;25.35;39.55;100743.06;5087363;27;47116;-74
2022/11/24 18:13:58;;;;;;;;;2.00;1.67;;;;;25.31;39.58;100740.88;5079357;27;45338;-74
2022/11/24 18:16:26;;;;;;;;;2.00;2.00;;;;;25.26;39.60;100739.53;5073589;27;45344;-73
2022/11/24 18:18:56;;;;;;;;;2.67;2.00;;;;;25.23;39.33;100739.91;5076501;27;45445;-74
2022/11/24 18:21:22;;;;;;;;;2.00;2.00;;;;;25.19;39.49;100743.16;5086433;27;46149;-74
2022/11/24 18:23:47;;;;;;;;;1.33;1.00;;;;;25.17;39.51;100737.91;5092419;27;45553;-73
2022/11/24 18:26:14;;;;;;;;;3.00;1.00;;;;;25.12;39.61;100749.31;5087689;27;45482;-72
2022/11/24 18:28:41;;;;;;;;;1.00;1.00;;;;;25.08;39.49;100752.56;5091969;27;45314;-73
2022/11/24 18:31:09;;;;;;;;;1.67;1.67;;;;;25.04;39.34;100748.50;5085152;27;46325;-74
2022/11/24 18:33:36;;;;;;;;;3.00;2.00;;;;;25.00;39.81;100745.31;5086593;27;45461;-74
2022/11/24 18:36:06;;;;;;;;;1.33;1.33;;;;;24.97;39.64;100746.50;5086808;27;45463;-74
2022/11/24 18:38:33;;;;;;;;;3.00;2.33;;;;;24.97;39.56;100746.50;5082023;27;45653;-74
2022/11/24 18:40:59;;;;;;;;;1.00;1.00;;;;;24.95;39.48;100742.28;5087298;27;46138;-74
2022/11/24 18:43:27;;;;;;;;;3.00;2.00;;;;;24.95;39.37;100743.13;5086026;27;45363;-72
2022/11/24 18:45:52;;;;;;;;;4.00;2.00;;;;;24.94;39.81;100746.03;5094643;27;45555;-71
2022/11/24 18:48:19;;;;;;;;;1.00;1.00;;;;;24.92;39.44;100740.75;5088793;27;45394;-71
2022/11/24 18:50:50;;;;;;;;;4.00;2.33;;;;;24.90;39.41;100731.97;5093632;27;46385;-72
2022/11/24 18:53:15;;;;;;;;;1.00;1.00;;;;;24.89;39.75;100730.25;5093370;27;45399;-71
2022/11/24 18:55:40;;;;;;;;;2.00;2.00;;;;;24.88;39.63;100731.28;5091439;27;45478;-72
2022/11/24 18:58:05;;;;;;;;;3.00;2.00;;;;;24.87;39.66;100726.88;5084825;27;55575;-71
2022/11/24 19:00:32;;;;;;;;;3.00;2.00;;;;;24.85;39.36;100724.34;5081295;27;61893;-71
2022/11/24 19:02:57;;;;;;;;;1.00;1.00;;;;;24.84;39.87;100728.09;5089918;27;45449;-71
2022/11/24 19:05:23;;;;;;;;;1.33;1.33;;;;;24.82;39.74;100731.97;5089159;27;45364;-72
2022/11/24 19:07:48;;;;;;;;;2.67;2.67;;;;;24.80;40.03;100729.44;5084995;27;45405;-71
2022/11/24 19:10:14;;;;;;;;;2.33;1.00;;;;;24.79;39.71;100719.59;5090478;27;55999;-72
2022/11/24 19:12:40;;;;;;;;;2.00;2.00;;;;;24.77;39.81;100724.34;5091904;27;45711;-71
2022/11/24 19:15:06;;;;;;;;;2.67;2.00;;;;;24.77;39.48;100726.22;5091721;27;45558;-71